sensor_id;sensor_type;location;lat;lon;timestamp;P1;durP1;ratioP1;P2;durP2;ratioP2
6432;SDS011;3249;42.690;23.260;2022-11-20T00:00:34;5.43;;;2.00;;
6432;SDS011;3249;42.690;23.260;2022-11-20T00:03:00;4.23;;;1.93;;
6432;SDS011;3249;42.690;23.260;2022-11-20T00:05:25;4.67;;;1.83;;
6432;SDS011;3249;42.690;23.260;2022-11-20T00:07:51;1.87;;;1.77;;
6432;SDS011;3249;42.690;23.260;2022-11-20T00:10:16;3.00;;;2.20;;
6432;SDS011;3249;42.690;23.260;2022-11-20T00:12:41;2.40;;;2.03;;
6432;SDS011;3249;42.690;23.260;2022-11-20T00:15:07;5.17;;;2.13;;
6432;SDS011;3249;42.690;23.260;2022-11-20T00:17:33;2.50;;;1.93;;
6432;SDS011;3249;42.690;23.260;2022-11-20T00:19:58;3.57;;;2.10;;
6432;SDS011;3249;42.690;23.260;2022-11-20T00:22:24;3.50;;;1.70;;
6432;SDS011;3249;42.690;23.260;2022-11-20T00:24:49;5.43;;;2.27;;
6432;SDS011;3249;42.690;23.260;2022-11-20T00:27:14;3.00;;;1.80;;
6432;SDS011;3249;42.690;23.260;2022-11-20T00:29:40;2.10;;;1.40;;
6432;SDS011;3249;42.690;23.260;2022-11-20T00:32:05;1.73;;;1.60;;
6432;SDS011;3249;42.690;23.260;2022-11-20T00:34:30;3.60;;;2.37;;
6432;SDS011;3249;42.690;23.260;2022-11-20T00:36:56;2.53;;;1.70;;
6432;SDS011;3249;42.690;23.260;2022-11-20T00:39:21;2.17;;;1.93;;
6432;SDS011;3249;42.690;23.260;2022-11-20T00:41:47;2.20;;;2.00;;
6432;SDS011;3249;42.690;23.260;2022-11-20T00:44:12;3.03;;;1.83;;
6432;SDS011;3249;42.690;23.260;2022-11-20T00:46:37;3.17;;;1.93;;
6432;SDS011;3249;42.690;23.260;2022-11-20T00:49:03;1.70;;;1.60;;
6432;SDS011;3249;42.690;23.260;2022-11-20T00:51:28;2.87;;;2.10;;
6432;SDS011;3249;42.690;23.260;2022-11-20T00:53:57;3.23;;;2.03;;
6432;SDS011;3249;42.690;23.260;2022-11-20T00:56:25;1.67;;;1.43;;
6432;SDS011;3249;42.690;23.260;2022-11-20T00:58:51;3.27;;;1.97;;
6432;SDS011;3249;42.690;23.260;2022-11-20T01:01:20;2.43;;;1.93;;
6432;SDS011;3249;42.690;23.260;2022-11-20T01:03:49;2.43;;;2.13;;
6432;SDS011;3249;42.690;23.260;2022-11-20T01:06:20;2.37;;;2.07;;
6432;SDS011;3249;42.690;23.260;2022-11-20T01:08:48;4.93;;;2.30;;
6432;SDS011;3249;42.690;23.260;2022-11-20T01:11:16;3.03;;;2.00;;
6432;SDS011;3249;42.690;23.260;2022-11-20T01:13:44;3.83;;;2.30;;
6432;SDS011;3249;42.690;23.260;2022-11-20T01:16:11;2.43;;;1.90;;
6432;SDS011;3249;42.690;23.260;2022-11-20T01:18:39;1.70;;;1.60;;
6432;SDS011;3249;42.690;23.260;2022-11-20T01:21:08;2.60;;;2.13;;
6432;SDS011;3249;42.690;23.260;2022-11-20T01:23:36;6.37;;;2.23;;
6432;SDS011;3249;42.690;23.260;2022-11-20T01:26:04;1.90;;;1.63;;
6432;SDS011;3249;42.690;23.260;2022-11-20T01:28:31;2.60;;;1.43;;
6432;SDS011;3249;42.690;23.260;2022-11-20T01:30:57;2.70;;;1.80;;
6432;SDS011;3249;42.690;23.260;2022-11-20T01:33:22;1.90;;;1.80;;
6432;SDS011;3249;42.690;23.260;2022-11-20T01:35:48;2.73;;;1.90;;
6432;SDS011;3249;42.690;23.260;2022-11-20T01:38:17;2.27;;;1.80;;
6432;SDS011;3249;42.690;23.260;2022-11-20T01:40:43;1.60;;;1.60;;
6432;SDS011;3249;42.690;23.260;2022-11-20T01:43:18;2.10;;;1.90;;
6432;SDS011;3249;42.690;23.260;2022-11-20T01:45:54;1.70;;;1.60;;
6432;SDS011;3249;42.690;23.260;2022-11-20T01:48:42;1.30;;;1.20;;
6432;SDS011;3249;42.690;23.260;2022-11-20T01:51:15;4.50;;;1.90;;
6432;SDS011;3249;42.690;23.260;2022-11-20T01:53:45;1.80;;;1.70;;
6432;SDS011;3249;42.690;23.260;2022-11-20T01:56:11;2.93;;;2.17;;
6432;SDS011;3249;42.690;23.260;2022-11-20T01:58:42;3.47;;;1.83;;
6432;SDS011;3249;42.690;23.260;2022-11-20T02:01:12;2.33;;;1.90;;
6432;SDS011;3249;42.690;23.260;2022-11-20T02:03:38;3.00;;;1.70;;
6432;SDS011;3249;42.690;23.260;2022-11-20T02:06:23;3.30;;;1.83;;
6432;SDS011;3249;42.690;23.260;2022-11-20T02:08:51;2.40;;;1.87;;
6432;SDS011;3249;42.690;23.260;2022-11-20T02:11:17;1.80;;;1.70;;
6432;SDS011;3249;42.690;23.260;2022-11-20T02:13:42;2.90;;;1.80;;
6432;SDS011;3249;42.690;23.260;2022-11-20T02:16:09;1.80;;;1.67;;
6432;SDS011;3249;42.690;23.260;2022-11-20T02:18:38;4.20;;;1.97;;
6432;SDS011;3249;42.690;23.260;2022-11-20T02:21:09;2.07;;;1.90;;
6432;SDS011;3249;42.690;23.260;2022-11-20T02:23:54;2.73;;;1.93;;
6432;SDS011;3249;42.690;23.260;2022-11-20T02:26:23;2.43;;;1.80;;
6432;SDS011;3249;42.690;23.260;2022-11-20T02:28:51;2.33;;;2.03;;
6432;SDS011;3249;42.690;23.260;2022-11-20T02:31:16;3.20;;;1.90;;
6432;SDS011;3249;42.690;23.260;2022-11-20T02:33:42;4.60;;;2.30;;
6432;SDS011;3249;42.690;23.260;2022-11-20T02:36:08;3.67;;;2.13;;
6432;SDS011;3249;42.690;23.260;2022-11-20T02:38:39;2.30;;;2.00;;
6432;SDS011;3249;42.690;23.260;2022-11-20T02:41:05;2.23;;;2.03;;
6432;SDS011;3249;42.690;23.260;2022-11-20T02:43:30;4.70;;;2.13;;
6432;SDS011;3249;42.690;23.260;2022-11-20T02:45:55;2.70;;;2.20;;
6432;SDS011;3249;42.690;23.260;2022-11-20T02:48:21;2.67;;;1.90;;
6432;SDS011;3249;42.690;23.260;2022-11-20T02:50:46;5.23;;;1.90;;
6432;SDS011;3249;42.690;23.260;2022-11-20T02:53:12;5.30;;;2.20;;
6432;SDS011;3249;42.690;23.260;2022-11-20T02:55:37;3.77;;;2.40;;
6432;SDS011;3249;42.690;23.260;2022-11-20T02:58:02;5.07;;;2.40;;
6432;SDS011;3249;42.690;23.260;2022-11-20T03:00:28;6.47;;;2.47;;
6432;SDS011;3249;42.690;23.260;2022-11-20T03:02:53;3.10;;;2.20;;
6432;SDS011;3249;42.690;23.260;2022-11-20T03:05:19;2.57;;;2.17;;
6432;SDS011;3249;42.690;23.260;2022-11-20T03:07:44;4.37;;;2.10;;
6432;SDS011;3249;42.690;23.260;2022-11-20T03:10:09;5.40;;;2.07;;
6432;SDS011;3249;42.690;23.260;2022-11-20T03:12:35;2.37;;;2.17;;
6432;SDS011;3249;42.690;23.260;2022-11-20T03:15:00;4.30;;;2.40;;
6432;SDS011;3249;42.690;23.260;2022-11-20T03:17:26;2.93;;;2.30;;
6432;SDS011;3249;42.690;23.260;2022-11-20T03:19:51;8.47;;;2.57;;
6432;SDS011;3249;42.690;23.260;2022-11-20T03:22:16;4.97;;;2.20;;
6432;SDS011;3249;42.690;23.260;2022-11-20T03:24:42;2.67;;;2.40;;
6432;SDS011;3249;42.690;23.260;2022-11-20T03:27:07;6.07;;;2.50;;
6432;SDS011;3249;42.690;23.260;2022-11-20T03:29:33;3.87;;;2.13;;
6432;SDS011;3249;42.690;23.260;2022-11-20T03:32:00;7.57;;;2.60;;
6432;SDS011;3249;42.690;23.260;2022-11-20T03:34:25;2.77;;;2.10;;
6432;SDS011;3249;42.690;23.260;2022-11-20T03:36:50;5.13;;;2.63;;
6432;SDS011;3249;42.690;23.260;2022-11-20T03:39:16;4.57;;;2.30;;
6432;SDS011;3249;42.690;23.260;2022-11-20T03:41:41;2.90;;;1.87;;
6432;SDS011;3249;42.690;23.260;2022-11-20T03:44:08;4.63;;;2.67;;
6432;SDS011;3249;42.690;23.260;2022-11-20T03:46:36;3.93;;;2.07;;
6432;SDS011;3249;42.690;23.260;2022-11-20T03:49:02;3.73;;;2.70;;
6432;SDS011;3249;42.690;23.260;2022-11-20T03:51:34;5.77;;;2.13;;
6432;SDS011;3249;42.690;23.260;2022-11-20T03:54:03;2.33;;;1.83;;
6432;SDS011;3249;42.690;23.260;2022-11-20T03:56:31;4.10;;;2.27;;
6432;SDS011;3249;42.690;23.260;2022-11-20T03:58:58;2.60;;;1.90;;
6432;SDS011;3249;42.690;23.260;2022-11-20T04:01:25;4.23;;;2.43;;
6432;SDS011;3249;42.690;23.260;2022-11-20T04:03:53;2.97;;;2.43;;
6432;SDS011;3249;42.690;23.260;2022-11-20T04:06:21;4.17;;;2.00;;
6432;SDS011;3249;42.690;23.260;2022-11-20T04:08:48;7.03;;;2.60;;
6432;SDS011;3249;42.690;23.260;2022-11-20T04:13:41;5.20;;;2.00;;
6432;SDS011;3249;42.690;23.260;2022-11-20T04:16:08;2.70;;;1.80;;
6432;SDS011;3249;42.690;23.260;2022-11-20T04:18:35;2.20;;;2.00;;
6432;SDS011;3249;42.690;23.260;2022-11-20T04:21:00;3.47;;;2.30;;
6432;SDS011;3249;42.690;23.260;2022-11-20T04:23:26;2.27;;;1.90;;
6432;SDS011;3249;42.690;23.260;2022-11-20T04:25:52;2.83;;;2.07;;
6432;SDS011;3249;42.690;23.260;2022-11-20T04:28:17;2.27;;;2.00;;
6432;SDS011;3249;42.690;23.260;2022-11-20T04:30:43;2.17;;;1.80;;
6432;SDS011;3249;42.690;23.260;2022-11-20T04:33:08;1.63;;;1.53;;
6432;SDS011;3249;42.690;23.260;2022-11-20T04:35:34;3.93;;;2.17;;
6432;SDS011;3249;42.690;23.260;2022-11-20T04:38:00;3.47;;;1.93;;
6432;SDS011;3249;42.690;23.260;2022-11-20T04:40:27;2.83;;;1.87;;
6432;SDS011;3249;42.690;23.260;2022-11-20T04:42:53;1.93;;;1.80;;
6432;SDS011;3249;42.690;23.260;2022-11-20T04:45:19;2.50;;;2.00;;
6432;SDS011;3249;42.690;23.260;2022-11-20T04:47:44;3.47;;;1.80;;
6432;SDS011;3249;42.690;23.260;2022-11-20T04:50:10;2.23;;;1.80;;
6432;SDS011;3249;42.690;23.260;2022-11-20T04:52:35;2.57;;;2.20;;
6432;SDS011;3249;42.690;23.260;2022-11-20T04:55:01;1.60;;;1.50;;
6432;SDS011;3249;42.690;23.260;2022-11-20T04:57:26;1.80;;;1.70;;
6432;SDS011;3249;42.690;23.260;2022-11-20T04:59:51;4.43;;;2.23;;
6432;SDS011;3249;42.690;23.260;2022-11-20T05:02:17;5.33;;;2.33;;
6432;SDS011;3249;42.690;23.260;2022-11-20T05:04:42;2.90;;;1.90;;
6432;SDS011;3249;42.690;23.260;2022-11-20T05:07:08;3.37;;;1.80;;
6432;SDS011;3249;42.690;23.260;2022-11-20T05:09:33;2.20;;;2.10;;
6432;SDS011;3249;42.690;23.260;2022-11-20T05:11:59;2.47;;;2.27;;
6432;SDS011;3249;42.690;23.260;2022-11-20T05:14:24;3.17;;;1.67;;
6432;SDS011;3249;42.690;23.260;2022-11-20T05:16:49;1.90;;;1.80;;
6432;SDS011;3249;42.690;23.260;2022-11-20T05:19:15;2.03;;;1.93;;
6432;SDS011;3249;42.690;23.260;2022-11-20T05:21:40;3.93;;;1.80;;
6432;SDS011;3249;42.690;23.260;2022-11-20T05:24:05;3.03;;;1.83;;
6432;SDS011;3249;42.690;23.260;2022-11-20T05:26:31;1.83;;;1.73;;
6432;SDS011;3249;42.690;23.260;2022-11-20T05:28:57;1.60;;;1.50;;
6432;SDS011;3249;42.690;23.260;2022-11-20T05:31:23;3.47;;;2.80;;
6432;SDS011;3249;42.690;23.260;2022-11-20T05:33:50;1.87;;;1.67;;
6432;SDS011;3249;42.690;23.260;2022-11-20T05:36:15;2.33;;;1.87;;
6432;SDS011;3249;42.690;23.260;2022-11-20T05:38:41;4.53;;;2.00;;
6432;SDS011;3249;42.690;23.260;2022-11-20T05:41:15;2.13;;;1.80;;
6432;SDS011;3249;42.690;23.260;2022-11-20T05:43:44;4.10;;;1.90;;
6432;SDS011;3249;42.690;23.260;2022-11-20T05:46:12;2.90;;;2.40;;
6432;SDS011;3249;42.690;23.260;2022-11-20T05:48:39;2.37;;;2.13;;
6432;SDS011;3249;42.690;23.260;2022-11-20T05:51:07;3.30;;;2.40;;
6432;SDS011;3249;42.690;23.260;2022-11-20T05:53:34;5.00;;;2.90;;
6432;SDS011;3249;42.690;23.260;2022-11-20T05:56:01;5.07;;;2.37;;
6432;SDS011;3249;42.690;23.260;2022-11-20T05:58:28;6.67;;;2.60;;
6432;SDS011;3249;42.690;23.260;2022-11-20T06:01:02;3.43;;;1.90;;
6432;SDS011;3249;42.690;23.260;2022-11-20T06:03:39;3.77;;;2.20;;
6432;SDS011;3249;42.690;23.260;2022-11-20T06:06:05;2.60;;;2.07;;
6432;SDS011;3249;42.690;23.260;2022-11-20T06:08:31;10.77;;;2.13;;
6432;SDS011;3249;42.690;23.260;2022-11-20T06:10:57;2.60;;;2.33;;
6432;SDS011;3249;42.690;23.260;2022-11-20T06:13:22;4.53;;;2.17;;
6432;SDS011;3249;42.690;23.260;2022-11-20T06:15:52;5.03;;;2.37;;
6432;SDS011;3249;42.690;23.260;2022-11-20T06:18:18;4.43;;;2.47;;
6432;SDS011;3249;42.690;23.260;2022-11-20T06:20:44;5.47;;;2.60;;
6432;SDS011;3249;42.690;23.260;2022-11-20T06:23:10;4.53;;;2.10;;
6432;SDS011;3249;42.690;23.260;2022-11-20T06:25:39;3.27;;;2.20;;
6432;SDS011;3249;42.690;23.260;2022-11-20T06:28:05;6.07;;;2.23;;
6432;SDS011;3249;42.690;23.260;2022-11-20T06:30:30;3.23;;;2.93;;
6432;SDS011;3249;42.690;23.260;2022-11-20T06:32:56;2.90;;;2.60;;
6432;SDS011;3249;42.690;23.260;2022-11-20T06:35:21;2.97;;;2.43;;
6432;SDS011;3249;42.690;23.260;2022-11-20T06:37:47;3.00;;;2.77;;
6432;SDS011;3249;42.690;23.260;2022-11-20T06:40:12;4.00;;;3.27;;
6432;SDS011;3249;42.690;23.260;2022-11-20T06:42:38;3.80;;;3.47;;
6432;SDS011;3249;42.690;23.260;2022-11-20T06:45:03;4.07;;;2.60;;
6432;SDS011;3249;42.690;23.260;2022-11-20T06:47:29;3.73;;;3.13;;
6432;SDS011;3249;42.690;23.260;2022-11-20T06:49:54;5.57;;;2.70;;
6432;SDS011;3249;42.690;23.260;2022-11-20T06:52:20;2.20;;;2.00;;
6432;SDS011;3249;42.690;23.260;2022-11-20T06:54:45;3.63;;;1.97;;
6432;SDS011;3249;42.690;23.260;2022-11-20T06:57:11;2.10;;;1.60;;
6432;SDS011;3249;42.690;23.260;2022-11-20T06:59:36;2.13;;;1.63;;
6432;SDS011;3249;42.690;23.260;2022-11-20T07:02:01;3.63;;;1.93;;
6432;SDS011;3249;42.690;23.260;2022-11-20T07:04:27;2.07;;;1.87;;
6432;SDS011;3249;42.690;23.260;2022-11-20T07:06:52;2.53;;;1.77;;
6432;SDS011;3249;42.690;23.260;2022-11-20T07:09:18;2.87;;;1.80;;
6432;SDS011;3249;42.690;23.260;2022-11-20T07:11:43;3.47;;;1.70;;
6432;SDS011;3249;42.690;23.260;2022-11-20T07:14:08;2.40;;;1.90;;
6432;SDS011;3249;42.690;23.260;2022-11-20T07:16:34;4.80;;;2.07;;
6432;SDS011;3249;42.690;23.260;2022-11-20T07:18:59;4.40;;;2.27;;
6432;SDS011;3249;42.690;23.260;2022-11-20T07:21:24;3.17;;;2.47;;
6432;SDS011;3249;42.690;23.260;2022-11-20T07:23:50;3.57;;;2.57;;
6432;SDS011;3249;42.690;23.260;2022-11-20T07:26:15;4.67;;;2.30;;
6432;SDS011;3249;42.690;23.260;2022-11-20T07:28:43;2.47;;;2.17;;
6432;SDS011;3249;42.690;23.260;2022-11-20T07:31:09;5.47;;;2.87;;
6432;SDS011;3249;42.690;23.260;2022-11-20T07:33:34;4.40;;;2.47;;
6432;SDS011;3249;42.690;23.260;2022-11-20T07:36:00;3.97;;;1.90;;
6432;SDS011;3249;42.690;23.260;2022-11-20T07:38:26;5.20;;;1.87;;
6432;SDS011;3249;42.690;23.260;2022-11-20T07:40:55;2.77;;;2.50;;
6432;SDS011;3249;42.690;23.260;2022-11-20T07:43:22;4.87;;;3.23;;
6432;SDS011;3249;42.690;23.260;2022-11-20T07:45:48;5.83;;;2.33;;
6432;SDS011;3249;42.690;23.260;2022-11-20T07:48:13;5.13;;;2.53;;
6432;SDS011;3249;42.690;23.260;2022-11-20T07:50:38;4.53;;;2.23;;
6432;SDS011;3249;42.690;23.260;2022-11-20T07:53:04;5.37;;;2.20;;
6432;SDS011;3249;42.690;23.260;2022-11-20T07:55:30;3.47;;;2.20;;
6432;SDS011;3249;42.690;23.260;2022-11-20T07:57:56;6.00;;;2.60;;
6432;SDS011;3249;42.690;23.260;2022-11-20T08:00:25;4.97;;;2.77;;
6432;SDS011;3249;42.690;23.260;2022-11-20T08:02:51;8.77;;;3.87;;
6432;SDS011;3249;42.690;23.260;2022-11-20T08:05:17;19.03;;;10.47;;
6432;SDS011;3249;42.690;23.260;2022-11-20T08:07:42;12.63;;;11.20;;
6432;SDS011;3249;42.690;23.260;2022-11-20T08:10:09;6.67;;;3.77;;
6432;SDS011;3249;42.690;23.260;2022-11-20T08:12:43;15.67;;;10.13;;
6432;SDS011;3249;42.690;23.260;2022-11-20T08:15:28;4.00;;;2.40;;
6432;SDS011;3249;42.690;23.260;2022-11-20T08:17:59;7.50;;;2.70;;
6432;SDS011;3249;42.690;23.260;2022-11-20T08:20:26;4.50;;;2.03;;
6432;SDS011;3249;42.690;23.260;2022-11-20T08:22:52;5.00;;;2.30;;
6432;SDS011;3249;42.690;23.260;2022-11-20T08:25:22;5.67;;;2.77;;
6432;SDS011;3249;42.690;23.260;2022-11-20T08:27:47;7.27;;;2.73;;
6432;SDS011;3249;42.690;23.260;2022-11-20T08:30:12;4.17;;;2.87;;
6432;SDS011;3249;42.690;23.260;2022-11-20T08:32:38;4.87;;;2.70;;
6432;SDS011;3249;42.690;23.260;2022-11-20T08:35:03;4.87;;;2.73;;
6432;SDS011;3249;42.690;23.260;2022-11-20T08:37:29;4.53;;;2.80;;
6432;SDS011;3249;42.690;23.260;2022-11-20T08:39:55;3.57;;;2.70;;
6432;SDS011;3249;42.690;23.260;2022-11-20T08:42:22;5.83;;;2.73;;
6432;SDS011;3249;42.690;23.260;2022-11-20T08:44:47;5.70;;;3.00;;
6432;SDS011;3249;42.690;23.260;2022-11-20T08:47:12;7.33;;;3.33;;
6432;SDS011;3249;42.690;23.260;2022-11-20T08:49:38;9.40;;;2.80;;
6432;SDS011;3249;42.690;23.260;2022-11-20T08:52:03;5.53;;;2.87;;
6432;SDS011;3249;42.690;23.260;2022-11-20T08:54:29;6.63;;;3.20;;
6432;SDS011;3249;42.690;23.260;2022-11-20T08:56:54;6.80;;;3.10;;
6432;SDS011;3249;42.690;23.260;2022-11-20T08:59:19;7.30;;;2.83;;
6432;SDS011;3249;42.690;23.260;2022-11-20T09:01:45;8.47;;;3.60;;
6432;SDS011;3249;42.690;23.260;2022-11-20T09:04:10;7.07;;;3.57;;
6432;SDS011;3249;42.690;23.260;2022-11-20T09:06:36;5.17;;;3.90;;
6432;SDS011;3249;42.690;23.260;2022-11-20T09:09:02;7.73;;;3.33;;
6432;SDS011;3249;42.690;23.260;2022-11-20T09:11:27;5.73;;;3.20;;
6432;SDS011;3249;42.690;23.260;2022-11-20T09:13:53;5.93;;;3.30;;
6432;SDS011;3249;42.690;23.260;2022-11-20T09:16:18;6.07;;;3.60;;
6432;SDS011;3249;42.690;23.260;2022-11-20T09:18:43;6.67;;;3.63;;
6432;SDS011;3249;42.690;23.260;2022-11-20T09:21:09;4.53;;;3.30;;
6432;SDS011;3249;42.690;23.260;2022-11-20T09:23:36;4.37;;;3.37;;
6432;SDS011;3249;42.690;23.260;2022-11-20T09:26:03;5.83;;;3.27;;
6432;SDS011;3249;42.690;23.260;2022-11-20T09:28:34;8.30;;;3.57;;
6432;SDS011;3249;42.690;23.260;2022-11-20T09:30:59;10.83;;;3.33;;
6432;SDS011;3249;42.690;23.260;2022-11-20T09:33:25;5.67;;;3.50;;
6432;SDS011;3249;42.690;23.260;2022-11-20T09:35:51;6.57;;;3.37;;
6432;SDS011;3249;42.690;23.260;2022-11-20T09:38:16;7.30;;;3.50;;
6432;SDS011;3249;42.690;23.260;2022-11-20T09:40:57;4.00;;;3.17;;
6432;SDS011;3249;42.690;23.260;2022-11-20T09:43:43;3.47;;;3.17;;
6432;SDS011;3249;42.690;23.260;2022-11-20T09:46:26;5.07;;;2.80;;
6432;SDS011;3249;42.690;23.260;2022-11-20T09:54:27;2.77;;;2.53;;
6432;SDS011;3249;42.690;23.260;2022-11-20T09:56:58;5.63;;;3.43;;
6432;SDS011;3249;42.690;23.260;2022-11-20T09:59:42;6.70;;;3.27;;
6432;SDS011;3249;42.690;23.260;2022-11-20T10:04:53;6.93;;;4.03;;
6432;SDS011;3249;42.690;23.260;2022-11-20T10:07:48;4.37;;;3.10;;
6432;SDS011;3249;42.690;23.260;2022-11-20T10:10:32;8.47;;;4.30;;
6432;SDS011;3249;42.690;23.260;2022-11-20T10:30:11;6.83;;;4.03;;
6432;SDS011;3249;42.690;23.260;2022-11-20T10:32:42;10.73;;;4.77;;
6432;SDS011;3249;42.690;23.260;2022-11-20T10:37:40;14.03;;;5.10;;
6432;SDS011;3249;42.690;23.260;2022-11-20T10:40:27;15.57;;;4.97;;
6432;SDS011;3249;42.690;23.260;2022-11-20T10:43:00;11.13;;;4.73;;
6432;SDS011;3249;42.690;23.260;2022-11-20T10:50:48;14.23;;;5.60;;
6432;SDS011;3249;42.690;23.260;2022-11-20T10:56:20;12.73;;;6.80;;
6432;SDS011;3249;42.690;23.260;2022-11-20T10:59:02;6.57;;;3.80;;
6432;SDS011;3249;42.690;23.260;2022-11-20T11:01:40;5.90;;;2.80;;
6432;SDS011;3249;42.690;23.260;2022-11-20T11:04:14;8.63;;;3.93;;
6432;SDS011;3249;42.690;23.260;2022-11-20T11:06:51;6.73;;;3.67;;
6432;SDS011;3249;42.690;23.260;2022-11-20T11:09:26;5.57;;;2.90;;
6432;SDS011;3249;42.690;23.260;2022-11-20T11:11:57;3.70;;;2.47;;
6432;SDS011;3249;42.690;23.260;2022-11-20T11:14:23;5.40;;;2.20;;
6432;SDS011;3249;42.690;23.260;2022-11-20T11:16:50;4.40;;;3.63;;
6432;SDS011;3249;42.690;23.260;2022-11-20T11:19:16;5.83;;;2.40;;
6432;SDS011;3249;42.690;23.260;2022-11-20T11:21:49;3.73;;;2.23;;
6432;SDS011;3249;42.690;23.260;2022-11-20T11:24:24;3.30;;;3.00;;
6432;SDS011;3249;42.690;23.260;2022-11-20T11:27:01;2.83;;;2.03;;
6432;SDS011;3249;42.690;23.260;2022-11-20T11:29:31;5.20;;;1.87;;
6432;SDS011;3249;42.690;23.260;2022-11-20T11:34:39;3.73;;;2.83;;
6432;SDS011;3249;42.690;23.260;2022-11-20T11:37:05;4.60;;;2.00;;
6432;SDS011;3249;42.690;23.260;2022-11-20T11:39:40;4.90;;;2.73;;
6432;SDS011;3249;42.690;23.260;2022-11-20T11:42:07;3.30;;;2.60;;
6432;SDS011;3249;42.690;23.260;2022-11-20T11:44:38;3.77;;;2.20;;
6432;SDS011;3249;42.690;23.260;2022-11-20T11:50:27;3.40;;;2.43;;
6432;SDS011;3249;42.690;23.260;2022-11-20T11:52:56;4.43;;;2.20;;
6432;SDS011;3249;42.690;23.260;2022-11-20T11:55:42;1.80;;;1.70;;
6432;SDS011;3249;42.690;23.260;2022-11-20T12:03:50;3.93;;;2.50;;
6432;SDS011;3249;42.690;23.260;2022-11-20T12:06:23;6.27;;;2.00;;
6432;SDS011;3249;42.690;23.260;2022-11-20T12:16:29;6.23;;;2.20;;
6432;SDS011;3249;42.690;23.260;2022-11-20T12:18:58;5.87;;;2.10;;
6432;SDS011;3249;42.690;23.260;2022-11-20T12:26:41;4.47;;;3.37;;
6432;SDS011;3249;42.690;23.260;2022-11-20T12:39:58;3.23;;;1.90;;
6432;SDS011;3249;42.690;23.260;2022-11-20T12:42:49;6.33;;;2.33;;
6432;SDS011;3249;42.690;23.260;2022-11-20T12:45:50;2.67;;;2.13;;
6432;SDS011;3249;42.690;23.260;2022-11-20T13:01:44;4.07;;;3.50;;
6432;SDS011;3249;42.690;23.260;2022-11-20T13:06:44;5.30;;;2.87;;
6432;SDS011;3249;42.690;23.260;2022-11-20T13:09:11;6.97;;;5.30;;
6432;SDS011;3249;42.690;23.260;2022-11-20T13:16:55;4.53;;;3.47;;
6432;SDS011;3249;42.690;23.260;2022-11-20T13:19:31;14.10;;;10.27;;
6432;SDS011;3249;42.690;23.260;2022-11-20T13:21:57;21.97;;;14.67;;
6432;SDS011;3249;42.690;23.260;2022-11-20T13:24:40;18.00;;;12.37;;
6432;SDS011;3249;42.690;23.260;2022-11-20T13:29:43;9.47;;;8.47;;
6432;SDS011;3249;42.690;23.260;2022-11-20T13:34:38;5.67;;;4.80;;
6432;SDS011;3249;42.690;23.260;2022-11-20T13:37:04;4.93;;;3.50;;
6432;SDS011;3249;42.690;23.260;2022-11-20T13:39:31;6.20;;;3.50;;
6432;SDS011;3249;42.690;23.260;2022-11-20T13:42:01;8.80;;;4.27;;
6432;SDS011;3249;42.690;23.260;2022-11-20T13:44:47;4.00;;;3.03;;
6432;SDS011;3249;42.690;23.260;2022-11-20T13:47:28;7.00;;;3.53;;
6432;SDS011;3249;42.690;23.260;2022-11-20T13:49:54;5.40;;;3.40;;
6432;SDS011;3249;42.690;23.260;2022-11-20T13:55:47;7.20;;;3.93;;
6432;SDS011;3249;42.690;23.260;2022-11-20T14:01:23;6.60;;;5.87;;
6432;SDS011;3249;42.690;23.260;2022-11-20T14:03:49;6.80;;;3.90;;
6432;SDS011;3249;42.690;23.260;2022-11-20T14:06:27;8.63;;;3.53;;
6432;SDS011;3249;42.690;23.260;2022-11-20T14:08:55;5.13;;;3.33;;
6432;SDS011;3249;42.690;23.260;2022-11-20T14:11:21;3.70;;;3.33;;
6432;SDS011;3249;42.690;23.260;2022-11-20T14:16:28;5.17;;;3.60;;
6432;SDS011;3249;42.690;23.260;2022-11-20T14:19:17;3.70;;;3.40;;
6432;SDS011;3249;42.690;23.260;2022-11-20T14:21:44;10.80;;;4.90;;
6432;SDS011;3249;42.690;23.260;2022-11-20T14:24:14;6.10;;;4.43;;
6432;SDS011;3249;42.690;23.260;2022-11-20T14:26:45;5.53;;;4.13;;
6432;SDS011;3249;42.690;23.260;2022-11-20T14:29:17;4.63;;;4.23;;
6432;SDS011;3249;42.690;23.260;2022-11-20T14:31:44;6.43;;;3.47;;
6432;SDS011;3249;42.690;23.260;2022-11-20T14:34:15;3.07;;;2.67;;
6432;SDS011;3249;42.690;23.260;2022-11-20T14:36:44;2.80;;;2.33;;
6432;SDS011;3249;42.690;23.260;2022-11-20T14:39:11;2.20;;;1.90;;
6432;SDS011;3249;42.690;23.260;2022-11-20T14:41:50;17.13;;;13.97;;
6432;SDS011;3249;42.690;23.260;2022-11-20T14:44:16;5.10;;;3.70;;
6432;SDS011;3249;42.690;23.260;2022-11-20T14:46:42;3.60;;;2.70;;
6432;SDS011;3249;42.690;23.260;2022-11-20T14:49:08;4.03;;;2.90;;
6432;SDS011;3249;42.690;23.260;2022-11-20T14:51:36;4.80;;;4.00;;
6432;SDS011;3249;42.690;23.260;2022-11-20T14:54:11;6.77;;;3.33;;
6432;SDS011;3249;42.690;23.260;2022-11-20T14:56:41;3.17;;;2.70;;
6432;SDS011;3249;42.690;23.260;2022-11-20T14:59:08;4.47;;;2.50;;
6432;SDS011;3249;42.690;23.260;2022-11-20T15:01:34;5.20;;;4.70;;
6432;SDS011;3249;42.690;23.260;2022-11-20T15:06:27;17.57;;;12.10;;
6432;SDS011;3249;42.690;23.260;2022-11-20T15:08:53;3.60;;;3.03;;
6432;SDS011;3249;42.690;23.260;2022-11-20T15:11:19;4.40;;;4.00;;
6432;SDS011;3249;42.690;23.260;2022-11-20T15:13:50;3.77;;;3.47;;
6432;SDS011;3249;42.690;23.260;2022-11-20T15:16:19;4.03;;;3.57;;
6432;SDS011;3249;42.690;23.260;2022-11-20T15:18:47;3.57;;;3.27;;
6432;SDS011;3249;42.690;23.260;2022-11-20T15:21:14;3.20;;;3.00;;
6432;SDS011;3249;42.690;23.260;2022-11-20T15:23:40;3.10;;;2.90;;
6432;SDS011;3249;42.690;23.260;2022-11-20T15:26:06;2.57;;;2.43;;
6432;SDS011;3249;42.690;23.260;2022-11-20T15:28:34;3.20;;;2.90;;
6432;SDS011;3249;42.690;23.260;2022-11-20T15:31:02;5.30;;;4.03;;
6432;SDS011;3249;42.690;23.260;2022-11-20T15:33:29;4.27;;;3.87;;
6432;SDS011;3249;42.690;23.260;2022-11-20T15:35:55;5.13;;;4.13;;
6432;SDS011;3249;42.690;23.260;2022-11-20T15:38:20;6.37;;;4.63;;
6432;SDS011;3249;42.690;23.260;2022-11-20T15:40:45;8.17;;;4.10;;
6432;SDS011;3249;42.690;23.260;2022-11-20T15:43:11;12.10;;;4.67;;
6432;SDS011;3249;42.690;23.260;2022-11-20T15:48:04;9.07;;;5.50;;
6432;SDS011;3249;42.690;23.260;2022-11-20T15:50:36;7.87;;;4.73;;
6432;SDS011;3249;42.690;23.260;2022-11-20T15:53:03;13.47;;;6.40;;
6432;SDS011;3249;42.690;23.260;2022-11-20T15:55:28;5.27;;;4.17;;
6432;SDS011;3249;42.690;23.260;2022-11-20T15:57:54;4.23;;;3.83;;
6432;SDS011;3249;42.690;23.260;2022-11-20T16:00:19;5.30;;;4.40;;
6432;SDS011;3249;42.690;23.260;2022-11-20T16:02:44;3.60;;;3.13;;
6432;SDS011;3249;42.690;23.260;2022-11-20T16:05:11;3.40;;;3.10;;
6432;SDS011;3249;42.690;23.260;2022-11-20T16:07:37;9.80;;;4.00;;
6432;SDS011;3249;42.690;23.260;2022-11-20T16:10:02;9.13;;;4.97;;
6432;SDS011;3249;42.690;23.260;2022-11-20T16:12:28;6.80;;;4.40;;
6432;SDS011;3249;42.690;23.260;2022-11-20T16:15:12;6.90;;;5.10;;
6432;SDS011;3249;42.690;23.260;2022-11-20T16:17:56;5.57;;;4.17;;
6432;SDS011;3249;42.690;23.260;2022-11-20T16:20:21;6.30;;;5.40;;
6432;SDS011;3249;42.690;23.260;2022-11-20T16:22:47;5.63;;;5.10;;
6432;SDS011;3249;42.690;23.260;2022-11-20T16:25:12;5.70;;;4.50;;
6432;SDS011;3249;42.690;23.260;2022-11-20T16:27:38;5.37;;;3.60;;
6432;SDS011;3249;42.690;23.260;2022-11-20T16:30:03;3.87;;;3.53;;
6432;SDS011;3249;42.690;23.260;2022-11-20T16:32:29;3.60;;;3.30;;
6432;SDS011;3249;42.690;23.260;2022-11-20T16:34:54;4.37;;;3.27;;
6432;SDS011;3249;42.690;23.260;2022-11-20T16:37:20;3.57;;;3.27;;
6432;SDS011;3249;42.690;23.260;2022-11-20T16:39:45;3.70;;;3.40;;
6432;SDS011;3249;42.690;23.260;2022-11-20T16:42:10;7.40;;;4.07;;
6432;SDS011;3249;42.690;23.260;2022-11-20T16:44:36;14.10;;;11.57;;
6432;SDS011;3249;42.690;23.260;2022-11-20T16:47:01;8.20;;;7.37;;
6432;SDS011;3249;42.690;23.260;2022-11-20T16:49:26;6.47;;;5.87;;
6432;SDS011;3249;42.690;23.260;2022-11-20T16:51:52;4.97;;;4.60;;
6432;SDS011;3249;42.690;23.260;2022-11-20T16:54:17;4.80;;;4.30;;
6432;SDS011;3249;42.690;23.260;2022-11-20T16:56:43;5.70;;;5.10;;
6432;SDS011;3249;42.690;23.260;2022-11-20T16:59:12;8.87;;;7.97;;